ENGM/OSL METAR and TAF weather

Enter ICAO airport designator
Station Type Date Time Source
ENGM METAR 2022/01/29 13:50 UTC NOAA

ENGM 291350Z 20011KT 9999 SCT010 BKN110 03/02 Q0972 NOSIG


Station Type Date Time Source
ENGM Decoded METAR 2022/01/29 13:50 UTC NOAA

Oslo / Gardermoen, Norway (ENGM) 60-12N 011-05E 204M
Jan 29, 2022 - 08:50 AM EST / 2022.01.29 1350 UTC
Wind: from the SSW (200 degrees) at 13 MPH (11 KT):0
Visibility: greater than 7 mile(s):0
Sky conditions: mostly cloudy
Temperature: 37 F (3 C)
Dew Point: 35 F (2 C)
Relative Humidity: 93%
Pressure (altimeter): 28.70 in. Hg (0972 hPa)
ob: ENGM 291350Z 20011KT 9999 SCT010 BKN110 03/02 Q0972 NOSIG
cycle: 14

Station Type Date Time Source
ENGM TAF 2022/01/29 14:07 UTC NOAA

TAF
AMD ENGM 291400Z 2914/3012 19012KT 9999 FEW010 SCT100
TEMPO 2914/2916 BKN012
BECMG 2915/2917 30020KT
TEMPO 2917/3012 30025G40KT

Example: see airport list